Time;durP1;ratioP1;P1;durP2;ratioP2;P2;SDS_P1;SDS_P2;PMS_P1;PMS_P2;Temp;Humidity;BMP_temperature;BMP_pressure;BME280_temperature;BME280_humidity;BME280_pressure;Samples;Min_cycle;Max_cycle;Signal;HPM_P1;HPM_P2
2021/11/05 00:00:13;;;;;;;31.08;14.43;;;;;;;10.76;100.00;97326.56;4946373;28;20069;-68
2021/11/05 00:02:40;;;;;;;34.78;16.15;;;;;;;10.77;100.00;97334.53;4944562;29;20526;-68
2021/11/05 00:05:08;;;;;;;28.15;15.52;;;;;;;10.66;100.00;97325.19;4946348;28;20059;-67
2021/11/05 00:07:35;;;;;;;35.60;15.70;;;;;;;10.66;100.00;97320.47;4944807;29;20526;-68
2021/11/05 00:10:06;;;;;;;29.17;14.48;;;;;;;10.25;100.00;97254.69;4944716;29;20057;-66
2021/11/05 00:12:33;;;;;;;27.35;14.07;;;;;;;10.66;100.00;97320.47;4945049;29;20058;-66
2021/11/05 00:15:00;;;;;;;15.48;8.85;;;;;;;10.33;100.00;97267.53;4945741;28;20331;-67
2021/11/05 00:17:27;;;;;;;12.70;7.53;;;;;;;10.60;100.00;97316.38;4945928;28;20062;-67
2021/11/05 00:19:53;;;;;;;18.27;8.05;;;;;;;10.64;100.00;97306.16;4945964;28;20057;-68
2021/11/05 00:22:20;;;;;;;16.58;8.35;;;;;;;10.62;100.00;97325.09;4945676;28;20566;-67
2021/11/05 00:24:48;;;;;;;16.35;8.23;;;;;;;10.61;100.00;97306.91;4957720;28;20533;-68
2021/11/05 00:27:14;;;;;;;14.70;7.43;;;;;;;10.72;100.00;97303.56;4964413;28;20062;-68
2021/11/05 00:29:42;;;;;;;14.85;7.63;;;;;;;10.70;100.00;97304.69;4963602;28;20058;-67
2021/11/05 00:32:10;;;;;;;19.98;8.10;;;;;;;10.75;100.00;97303.59;4964769;28;20058;-68
2021/11/05 00:34:37;;;;;;;15.43;7.28;;;;;;;10.74;100.00;97307.56;4963668;28;20442;-67
2021/11/05 00:37:04;;;;;;;16.33;8.20;;;;;;;10.82;100.00;97305.72;4963150;28;20465;-68
2021/11/05 00:39:31;;;;;;;24.52;11.52;;;;;;;10.78;100.00;97304.84;4964706;28;20847;-67
2021/11/05 00:41:59;;;;;;;26.17;12.02;;;;;;;10.25;100.00;97238.09;4964636;28;20055;-68
2021/11/05 00:44:25;;;;;;;19.98;11.15;;;;;;;10.15;100.00;97266.31;4964839;28;20149;-68
2021/11/05 00:46:52;;;;;;;20.75;10.52;;;;;;;9.89;100.00;97246.75;4964644;28;20062;-67
2021/11/05 00:49:19;;;;;;;22.25;10.98;;;;;;;10.14;100.00;97322.88;4964762;28;20403;-68
2021/11/05 00:51:46;;;;;;;18.83;9.95;;;;;;;9.97;100.00;97320.47;4964945;28;20529;-68
2021/11/05 00:54:13;;;;;;;21.13;10.25;;;;;;;10.00;100.00;97330.81;4968606;28;20419;-68
2021/11/05 00:56:40;;;;;;;19.30;9.57;;;;;;;9.84;100.00;97305.13;4969109;28;20059;-68
2021/11/05 00:59:08;;;;;;;22.70;10.32;;;;;;;9.99;100.00;97323.66;4968446;28;20142;-68
2021/11/05 01:01:35;;;;;;;23.25;9.77;;;;;;;9.90;100.00;97320.28;4968692;28;20046;-68
2021/11/05 01:04:02;;;;;;;20.80;9.35;;;;;;;9.95;100.00;97305.38;4969045;28;20054;-69
2021/11/05 01:06:29;;;;;;;16.92;8.48;;;;;;;9.58;100.00;97265.34;4968166;28;20076;-68
2021/11/05 01:08:55;;;;;;;23.00;9.90;;;;;;;9.75;100.00;97296.22;4967265;28;20055;-68
2021/11/05 01:11:22;;;;;;;24.98;11.50;;;;;;;9.72;100.00;97296.91;4969032;28;20341;-68
2021/11/05 01:13:49;;;;;;;29.05;12.82;;;;;;;9.38;100.00;97222.19;4968631;28;20059;-68
2021/11/05 01:16:15;;;;;;;22.92;11.25;;;;;;;9.58;100.00;97246.78;4967866;28;20043;-68
2021/11/05 01:18:42;;;;;;;20.77;10.18;;;;;;;8.92;100.00;97129.88;4968470;28;20063;-68
2021/11/05 01:21:09;;;;;;;25.83;11.32;;;;;;;9.99;100.00;97290.44;4967827;28;20053;-69
2021/11/05 01:23:36;;;;;;;24.02;10.13;;;;;;;9.94;100.00;97301.00;4966954;28;20493;-68
2021/11/05 01:26:02;;;;;;;24.92;9.93;;;;;;;9.70;100.00;97282.66;4967998;28;20059;-69
2021/11/05 01:28:29;;;;;;;21.35;10.35;;;;;;;9.52;100.00;97281.41;4968150;28;20066;-68
2021/11/05 01:30:56;;;;;;;22.10;9.98;;;;;;;9.33;100.00;97253.66;4966974;28;20084;-68
2021/11/05 01:33:23;;;;;;;20.73;8.60;;;;;;;9.31;100.00;97244.94;4968389;28;20492;-68
2021/11/05 01:35:50;;;;;;;19.30;9.45;;;;;;;9.29;100.00;97247.28;4966277;28;20557;-69
2021/11/05 01:38:17;;;;;;;17.20;9.43;;;;;;;9.83;100.00;97314.56;4968082;28;20057;-68
2021/11/05 01:40:45;;;;;;;21.42;9.80;;;;;;;9.91;100.00;97299.75;4967967;28;20050;-68
2021/11/05 01:43:13;;;;;;;18.77;9.70;;;;;;;9.94;100.00;97310.09;4967757;28;20058;-68
2021/11/05 01:45:42;;;;;;;24.02;10.00;;;;;;;10.02;100.00;97300.78;4966547;28;20611;-68
2021/11/05 01:48:09;;;;;;;23.58;10.90;;;;;;;9.85;100.00;97267.16;4967747;28;20086;-68
2021/11/05 01:50:37;;;;;;;21.20;10.45;;;;;;;9.95;100.00;97294.28;4967468;28;20050;-67
2021/11/05 01:53:09;;;;;;;20.05;9.90;;;;;;;9.93;100.00;97286.34;4966839;28;20082;-68
2021/11/05 01:55:35;;;;;;;22.90;9.02;;;;;;;9.89;100.00;97287.44;4967793;28;20051;-68
2021/11/05 01:58:02;;;;;;;28.85;9.50;;;;;;;9.72;100.00;97272.00;4968110;28;20046;-68
2021/11/05 02:00:31;;;;;;;19.50;9.80;;;;;;;9.74;100.00;97283.53;4967350;28;20051;-68
2021/11/05 02:02:58;;;;;;;19.65;10.00;;;;;;;9.65;100.00;97279.34;4967743;28;20133;-68
2021/11/05 02:05:25;;;;;;;19.30;9.52;;;;;;;9.78;100.00;97289.97;4967739;28;20058;-68
2021/11/05 02:07:53;;;;;;;24.33;9.95;;;;;;;9.75;100.00;97290.69;4965957;28;20058;-68
2021/11/05 02:10:23;;;;;;;23.58;7.90;;;;;;;9.54;100.00;97284.63;4965811;28;20086;-67
2021/11/05 02:12:52;;;;;;;16.95;8.52;;;;;;;8.86;100.00;97259.19;4967877;28;20057;-68
2021/11/05 02:15:19;;;;;;;17.08;8.70;;;;;;;9.22;100.00;97299.59;4967013;28;20618;-68
2021/11/05 02:17:47;;;;;;;17.60;8.15;;;;;;;9.19;100.00;97300.31;4967074;28;20055;-68
2021/11/05 02:20:20;;;;;;;17.80;9.45;;;;;;;8.94;100.00;97246.34;4966617;28;20046;-67
2021/11/05 02:22:48;;;;;;;20.58;9.57;;;;;;;9.27;100.00;97296.56;4967215;28;20056;-68
2021/11/05 02:25:15;;;;;;;22.23;10.27;;;;;;;9.29;100.00;97305.31;4965437;28;20419;-67
2021/11/05 02:27:42;;;;;;;17.67;9.45;;;;;;;9.21;100.00;97275.88;4966945;28;20135;-68
2021/11/05 02:30:10;;;;;;;21.67;9.57;;;;;;;9.43;100.00;97289.09;4967140;28;20066;-69
2021/11/05 02:32:39;;;;;;;47.67;21.70;;;;;;;8.97;100.00;97231.81;4965431;28;20498;-68
2021/11/05 02:35:10;;;;;;;30.48;15.35;;;;;;;9.41;100.00;97285.06;4965726;28;20063;-69
2021/11/05 02:37:37;;;;;;;28.40;14.32;;;;;;;9.56;100.00;97301.66;4965967;28;20051;-68
2021/11/05 02:40:05;;;;;;;23.83;10.30;;;;;;;9.19;100.00;97278.19;4965770;28;20070;-70
2021/11/05 02:42:34;;;;;;;20.25;9.65;;;;;;;9.33;100.00;97278.56;4965127;28;20117;-66
2021/11/05 02:45:02;;;;;;;17.38;9.77;;;;;;;9.46;100.00;97304.16;4965537;28;20085;-68
2021/11/05 02:47:29;;;;;;;20.08;10.90;;;;;;;9.48;100.00;97294.34;4966324;28;20511;-69
2021/11/05 02:50:06;;;;;;;23.50;10.38;;;;;;;9.53;100.00;97299.59;4966527;28;20062;-69
2021/11/05 02:52:33;;;;;;;21.95;9.15;;;;;;;9.49;100.00;97282.13;4966816;28;20136;-66
2021/11/05 02:55:00;;;;;;;19.83;9.35;;;;;;;9.65;100.00;97302.28;4965243;28;20117;-67
2021/11/05 02:57:27;;;;;;;22.17;9.05;;;;;;;9.78;100.00;97316.81;4966490;28;20142;-68
2021/11/05 02:59:54;;;;;;;22.67;10.07;;;;;;;9.80;100.00;97315.28;4967409;28;20077;-68
2021/11/05 03:02:24;;;;;;;23.23;8.68;;;;;;;9.69;100.00;97280.25;4966168;28;20566;-68
2021/11/05 03:04:52;;;;;;;22.05;9.20;;;;;;;9.41;100.00;97318.22;4966626;28;20054;-68
2021/11/05 03:07:19;;;;;;;22.15;9.93;;;;;;;9.81;100.00;97305.84;4965048;28;20101;-68
2021/11/05 03:09:46;;;;;;;23.85;10.68;;;;;;;9.51;100.00;97307.47;4966920;28;20141;-68
2021/11/05 03:12:13;;;;;;;24.20;10.80;;;;;;;8.68;100.00;97221.16;4966001;28;20537;-67
2021/11/05 03:14:40;;;;;;;20.90;9.63;;;;;;;9.07;100.00;97270.00;4965742;28;20047;-68
2021/11/05 03:17:09;;;;;;;20.88;9.30;;;;;;;9.21;100.00;97281.41;4965693;28;20055;-67
2021/11/05 03:19:36;;;;;;;16.73;9.30;;;;;;;9.25;100.00;97298.88;4966795;28;20549;-68
2021/11/05 03:22:04;;;;;;;20.42;10.25;;;;;;;9.29;100.00;97310.84;4966295;28;20057;-67
2021/11/05 03:24:31;;;;;;;17.42;9.38;;;;;;;9.31;100.00;97314.03;4964460;28;20062;-67
2021/11/05 03:26:58;;;;;;;19.20;8.73;;;;;;;9.21;100.00;97298.00;4965492;28;20054;-68
2021/11/05 03:29:24;;;;;;;17.63;8.88;;;;;;;9.36;100.00;97311.00;4965828;28;20145;-67
2021/11/05 03:31:51;;;;;;;18.95;9.25;;;;;;;9.37;100.00;97307.09;4965848;28;20051;-68
2021/11/05 03:34:18;;;;;;;19.48;9.15;;;;;;;9.35;100.00;97314.94;4964482;28;20051;-68
2021/11/05 03:36:45;;;;;;;18.73;10.57;;;;;;;9.40;100.00;97314.69;4965534;28;20047;-68
2021/11/05 03:39:11;;;;;;;15.75;8.57;;;;;;;9.41;100.00;97313.50;4964826;28;20239;-69
2021/11/05 03:41:38;;;;;;;20.55;8.20;;;;;;;9.45;100.00;97314.44;4963982;28;20113;-69
2021/11/05 03:44:05;;;;;;;17.60;9.75;;;;;;;9.52;100.00;97314.59;4965546;28;20055;-68
2021/11/05 03:46:34;;;;;;;14.57;7.03;;;;;;;9.65;100.00;97310.56;4965407;28;20099;-67
2021/11/05 03:49:03;;;;;;;12.85;7.05;;;;;;;9.19;100.00;97250.56;4964254;28;20077;-68
2021/11/05 03:51:30;;;;;;;16.38;8.43;;;;;;;9.57;100.00;97306.03;4965228;28;20070;-68
2021/11/05 03:53:57;;;;;;;13.38;6.93;;;;;;;9.23;100.00;97268.84;4965969;28;20055;-68
2021/11/05 03:56:25;;;;;;;17.58;7.65;;;;;;;9.66;100.00;97309.41;4966010;28;20509;-68
2021/11/05 03:58:52;;;;;;;17.55;8.10;;;;;;;8.99;100.00;97212.94;4965098;28;20514;-67
2021/11/05 04:01:22;;;;;;;12.77;7.10;;;;;;;9.00;100.00;97211.78;4963386;28;20546;-69
2021/11/05 04:03:49;;;;;;;15.07;7.70;;;;;;;9.53;100.00;97326.47;4963655;28;20149;-68
2021/11/05 04:06:17;;;;;;;15.50;8.98;;;;;;;9.54;100.00;97283.81;4965026;28;20046;-67
2021/11/05 04:08:44;;;;;;;17.63;9.48;;;;;;;9.57;100.00;97306.03;4963743;28;20054;-67
2021/11/05 04:11:11;;;;;;;15.05;8.77;;;;;;;8.76;100.00;97176.03;4965478;28;20059;-68
2021/11/05 04:13:39;;;;;;;18.73;9.25;;;;;;;9.62;100.00;97303.00;4965570;28;20059;-68
2021/11/05 04:16:07;;;;;;;16.75;8.55;;;;;;;9.31;100.00;97258.75;4965275;28;20525;-68
2021/11/05 04:18:34;;;;;;;16.25;8.48;;;;;;;9.63;100.00;97296.28;4965427;28;20050;-67
2021/11/05 04:21:01;;;;;;;22.40;11.10;;;;;;;9.52;100.00;97299.94;4965338;28;20520;-68
2021/11/05 04:23:28;;;;;;;16.20;8.25;;;;;;;9.55;100.00;97305.56;4965010;28;20529;-69
2021/11/05 04:25:55;;;;;;;18.88;8.88;;;;;;;9.03;100.00;97219.34;4963978;28;20054;-69
2021/11/05 04:28:22;;;;;;;21.15;9.75;;;;;;;9.48;100.00;97294.34;4963973;28;20058;-68
2021/11/05 04:30:48;;;;;;;16.23;9.02;;;;;;;9.46;100.00;97293.91;4964928;28;20138;-68
2021/11/05 04:33:15;;;;;;;18.98;10.73;;;;;;;9.50;100.00;97300.31;4964980;28;20077;-68
2021/11/05 04:35:42;;;;;;;17.95;8.90;;;;;;;9.56;100.00;97304.44;4964792;28;20049;-68
2021/11/05 04:38:10;;;;;;;17.80;8.38;;;;;;;9.53;100.00;97305.13;4964940;28;20442;-69
2021/11/05 04:40:37;;;;;;;16.60;7.50;;;;;;;9.46;100.00;97304.97;4964913;28;20153;-67
2021/11/05 04:43:04;;;;;;;12.77;6.22;;;;;;;9.09;100.00;97234.50;4963430;28;20063;-68
2021/11/05 04:45:31;;;;;;;14.38;7.82;;;;;;;9.42;100.00;97276.41;4963124;28;20553;-66
2021/11/05 04:47:59;;;;;;;15.00;8.90;;;;;;;9.40;100.00;97261.34;4964863;28;20054;-68
2021/11/05 04:50:26;;;;;;;51.92;25.58;;;;;;;9.58;100.00;97302.09;4963435;28;20506;-66
2021/11/05 04:52:53;;;;;;;19.10;9.18;;;;;;;9.43;100.00;97300.16;4964413;28;20066;-68
2021/11/05 04:55:21;;;;;;;14.68;7.60;;;;;;;8.97;100.00;97276.03;4964542;28;20081;-67
2021/11/05 04:57:49;;;;;;;15.40;7.70;;;;;;;9.10;100.00;97324.53;4963027;28;20058;-66
2021/11/05 05:00:19;;;;;;;20.58;10.02;;;;;;;9.09;100.00;97322.91;4964536;28;20058;-66
2021/11/05 05:02:46;;;;;;;17.85;10.32;;;;;;;8.74;100.00;97272.25;4963330;28;20065;-67
2021/11/05 05:05:13;;;;;;;17.92;8.85;;;;;;;9.12;100.00;97323.03;4963358;28;20057;-66
2021/11/05 05:07:40;;;;;;;18.02;9.07;;;;;;;8.63;100.00;97260.91;4964811;28;20503;-66
2021/11/05 05:10:08;;;;;;;16.50;9.20;;;;;;;8.85;100.00;97270.59;4962498;28;20050;-66
2021/11/05 05:12:36;;;;;;;53.85;21.08;;;;;;;9.17;100.00;97300.66;4964403;28;20062;-67
2021/11/05 05:15:05;;;;;;;51.72;23.45;;;;;;;9.33;100.00;97316.44;4965013;28;20058;-66
2021/11/05 05:17:31;;;;;;;55.40;24.05;;;;;;;9.39;100.00;97326.88;4962868;28;20055;-67
2021/11/05 05:19:58;;;;;;;60.05;26.67;;;;;;;9.23;100.00;97289.34;4964990;28;20434;-69
2021/11/05 05:22:25;;;;;;;43.80;20.10;;;;;;;9.22;100.00;97294.06;4964463;28;20065;-68
2021/11/05 05:24:51;;;;;;;41.85;21.52;;;;;;;9.37;100.00;97267.59;4965230;28;20058;-68
2021/11/05 05:27:18;;;;;;;50.90;23.70;;;;;;;9.63;100.00;97315.66;4964584;28;20058;-68
2021/11/05 05:29:47;;;;;;;55.22;26.13;;;;;;;9.83;100.00;97327.63;4964572;28;20050;-69
2021/11/05 05:32:14;;;;;;;58.13;25.40;;;;;;;8.97;100.00;97235.41;4963007;28;20808;-70
2021/11/05 05:34:41;;;;;;;70.55;30.60;;;;;;;9.59;100.00;97283.53;4964694;28;20521;-69
2021/11/05 05:37:08;;;;;;;79.63;32.08;;;;;;;9.94;100.00;97332.22;4963446;28;20069;-68
2021/11/05 05:39:35;;;;;;;52.50;23.73;;;;;;;9.83;100.00;97309.03;4968093;28;20508;-69
2021/11/05 05:42:02;;;;;;;47.85;21.90;;;;;;;10.19;100.00;97352.22;4966417;28;20073;-70
2021/11/05 05:44:29;;;;;;;33.00;16.50;;;;;;;10.19;100.00;97350.28;4968413;28;20085;-69
2021/11/05 05:46:56;;;;;;;37.50;19.33;;;;;;;10.26;100.00;97355.97;4966858;28;20050;-71
2021/11/05 05:49:22;;;;;;;47.70;19.10;;;;;;;10.45;100.00;97358.78;4965967;28;20145;-69
2021/11/05 05:51:49;;;;;;;79.88;23.85;;;;;;;9.90;100.00;97353.47;4967659;28;20051;-69
2021/11/05 05:54:16;;;;;;;59.97;22.05;;;;;;;10.14;100.00;97356.09;4967845;28;20411;-69
2021/11/05 05:56:43;;;;;;;53.88;20.70;;;;;;;10.04;100.00;97306.78;4966199;28;20526;-69
2021/11/05 05:59:10;;;;;;;60.28;19.60;;;;;;;10.58;100.00;97363.03;4967123;28;20453;-69
2021/11/05 06:01:36;;;;;;;47.83;21.95;;;;;;;10.28;100.00;97264.22;4967513;28;20493;-68
2021/11/05 06:04:03;;;;;;;57.53;24.50;;;;;;;10.68;99.80;97286.84;4967748;28;20081;-68
2021/11/05 06:06:31;;;;;;;54.00;24.13;;;;;;;11.36;97.73;97353.53;4967446;28;20061;-68
2021/11/05 06:08:58;;;;;;;52.83;24.40;;;;;;;11.55;98.36;97350.72;4967441;28;20426;-67
2021/11/05 06:11:26;;;;;;;45.10;23.33;;;;;;;11.82;98.57;97346.84;4965930;28;20054;-69
2021/11/05 06:13:52;;;;;;;40.20;18.77;;;;;;;12.10;96.05;97350.09;4967489;28;20106;-69
2021/11/05 06:16:19;;;;;;;31.20;15.10;;;;;;;12.30;94.90;97353.59;4967024;28;20470;-69
2021/11/05 06:18:46;;;;;;;35.22;14.60;;;;;;;12.24;93.45;97303.09;4967089;28;20149;-70
2021/11/05 06:21:14;;;;;;;20.42;10.25;;;;;;;12.45;92.62;97317.31;4965696;28;20069;-70
2021/11/05 06:23:40;;;;;;;19.10;10.18;;;;;;;12.58;93.43;97299.22;4965576;28;20498;-71
2021/11/05 06:26:07;;;;;;;19.42;9.73;;;;;;;13.23;91.95;97358.84;4967467;28;20051;-70
2021/11/05 06:28:35;;;;;;;17.10;9.77;;;;;;;13.36;92.25;97345.47;4967459;28;20536;-69
2021/11/05 06:31:02;;;;;;;20.30;11.45;;;;;;;12.80;89.79;97250.25;4967061;28;20061;-69
2021/11/05 06:33:29;;;;;;;21.25;9.05;;;;;;;13.73;89.67;97349.03;4966792;28;20155;-70
2021/11/05 06:35:55;;;;;;;12.95;7.88;;;;;;;13.84;89.71;97360.28;4966535;28;20515;-69
2021/11/05 06:38:22;;;;;;;19.60;8.77;;;;;;;14.20;88.88;97362.19;4967177;28;20138;-70
2021/11/05 06:40:49;;;;;;;24.58;10.80;;;;;;;14.27;87.66;97328.84;4967360;28;20065;-71
2021/11/05 06:43:16;;;;;;;17.92;9.70;;;;;;;14.59;86.78;97352.16;4966506;28;20055;-70
2021/11/05 06:45:42;;;;;;;25.83;11.00;;;;;;;14.19;85.55;97277.00;4966512;28;20110;-71
2021/11/05 06:48:09;;;;;;;19.77;9.80;;;;;;;14.72;85.89;97361.78;4966450;28;20065;-71
2021/11/05 06:50:37;;;;;;;46.42;12.60;;;;;;;14.19;86.53;97313.22;4961013;28;20121;-70
2021/11/05 06:53:04;;;;;;;18.73;9.48;;;;;;;14.92;85.78;97352.72;4964444;28;20054;-69
2021/11/05 06:55:31;;;;;;;24.75;10.32;;;;;;;15.29;84.86;97368.41;4951845;28;20066;-63
2021/11/05 06:57:58;;;;;;;25.30;9.85;;;;;;;15.64;82.49;97358.22;4965274;28;20047;-65
2021/11/05 07:00:24;;;;;;;22.38;10.75;;;;;;;15.86;82.56;97365.44;4965654;28;20046;-68
2021/11/05 07:02:51;;;;;;;22.83;11.70;;;;;;;15.30;82.15;97294.69;4965717;28;20517;-64
2021/11/05 07:05:19;;;;;;;20.38;10.18;;;;;;;15.58;82.20;97326.28;4963599;28;20066;-69
2021/11/05 07:07:46;;;;;;;19.15;11.13;;;;;;;16.01;81.40;97367.03;4960912;28;20132;-67
2021/11/05 07:10:13;;;;;;;21.02;9.27;;;;;;;15.01;81.52;97196.94;4956758;28;20065;-69
2021/11/05 07:12:39;;;;;;;18.90;10.68;;;;;;;16.44;81.01;97363.09;4964922;28;20055;-67
2021/11/05 07:15:11;;;;;;;19.70;10.70;;;;;;;16.21;80.52;97325.53;4964195;28;20510;-65
2021/11/05 07:17:38;;;;;;;25.27;11.00;;;;;;;15.68;80.01;97266.84;4965222;28;20665;-64
2021/11/05 07:20:07;;;;;;;20.38;10.07;;;;;;;15.33;81.52;97182.25;4965100;28;20874;-63
2021/11/05 07:22:36;;;;;;;22.38;12.65;;;;;;;15.80;81.52;97237.72;4964821;28;20066;-66
2021/11/05 07:25:05;;;;;;;22.05;11.95;;;;;;;16.45;81.21;97319.94;4963627;28;20544;-63
2021/11/05 07:27:32;;;;;;;25.80;11.48;;;;;;;14.92;81.61;97064.63;4964653;28;20051;-62
2021/11/05 07:29:59;;;;;;;22.65;11.38;;;;;;;16.89;81.95;97361.41;4965138;28;20457;-66
2021/11/05 07:32:26;;;;;;;24.05;12.13;;;;;;;16.17;82.66;97269.63;4964424;28;20051;-65
2021/11/05 07:34:56;;;;;;;21.83;11.25;;;;;;;16.21;82.65;97248.06;4953449;28;20050;-62
2021/11/05 07:37:22;;;;;;;20.33;9.93;;;;;;;16.02;82.58;97212.16;4964326;28;20573;-63
2021/11/05 07:39:50;;;;;;;22.65;11.30;;;;;;;16.43;82.45;97271.97;4964144;28;20053;-64
2021/11/05 07:42:17;;;;;;;24.13;10.10;;;;;;;17.12;81.41;97333.72;4965359;28;20059;-61
2021/11/05 07:44:44;;;;;;;18.98;9.43;;;;;;;16.34;81.22;97235.25;4961651;28;20134;-65
2021/11/05 07:47:11;;;;;;;20.40;9.50;;;;;;;16.71;83.48;97298.31;4965734;28;20137;-66
2021/11/05 07:49:38;;;;;;;18.30;9.98;;;;;;;17.17;83.12;97366.09;4965716;28;20081;-65
2021/11/05 07:52:06;;;;;;;17.73;8.68;;;;;;;17.21;84.41;97375.31;4966052;28;20054;-64
2021/11/05 07:54:32;;;;;;;14.93;8.60;;;;;;;16.32;84.25;97209.69;4964078;28;20057;-67
2021/11/05 07:56:59;;;;;;;17.58;9.90;;;;;;;17.24;84.26;97346.50;4959849;28;20069;-69
2021/11/05 07:59:26;;;;;;;17.85;9.30;;;;;;;17.74;82.87;97373.06;4964020;28;20537;-70
2021/11/05 08:01:53;;;;;;;25.70;10.45;;;;;;;16.41;81.97;97151.34;4963673;28;20050;-71
2021/11/05 08:04:20;;;;;;;14.82;9.32;;;;;;;18.15;81.17;97374.00;4961977;28;20086;-69
2021/11/05 08:06:46;;;;;;;15.48;8.70;;;;;;;17.37;80.18;97246.81;4957094;28;20414;-68
2021/11/05 08:09:13;;;;;;;17.02;8.70;;;;;;;17.74;79.27;97261.00;4962806;28;20055;-71
2021/11/05 08:11:42;;;;;;;15.85;9.13;;;;;;;17.01;79.02;97161.47;4964202;28;20557;-70
2021/11/05 08:14:09;;;;;;;17.52;8.32;;;;;;;18.93;78.17;97383.38;4964681;28;20063;-76
2021/11/05 08:16:36;;;;;;;16.88;8.48;;;;;;;19.16;77.06;97369.47;4964421;28;20058;-66
2021/11/05 08:19:03;;;;;;;12.85;8.13;;;;;;;19.48;75.59;97372.75;4964203;28;20050;-70
2021/11/05 08:21:30;;;;;;;12.60;7.43;;;;;;;18.78;74.92;97268.88;4962167;28;20065;-68
2021/11/05 08:23:58;;;;;;;14.27;8.27;;;;;;;18.30;80.25;97322.22;4961112;28;20050;-69
2021/11/05 08:26:26;;;;;;;13.55;7.82;;;;;;;18.61;80.43;97366.03;4964967;28;20216;-71
2021/11/05 08:28:53;;;;;;;13.25;7.18;;;;;;;17.97;79.05;97202.34;4964871;28;20623;-75
2021/11/05 08:31:20;;;;;;;11.68;6.70;;;;;;;19.23;78.42;97372.22;4962886;28;20063;-70
2021/11/05 08:33:47;;;;;;;11.52;7.35;;;;;;;19.37;75.99;97369.25;4964932;28;20055;-71
2021/11/05 08:36:17;;;;;;;13.60;6.93;;;;;;;18.78;75.93;97246.41;4962795;28;20066;-72
2021/11/05 08:38:44;;;;;;;14.15;7.25;;;;;;;19.65;75.40;97350.44;4964338;28;20122;-72
2021/11/05 08:41:16;;;;;;;11.10;7.18;;;;;;;19.32;75.02;97271.41;4963917;28;20058;-71
2021/11/05 08:43:51;;;;;;;11.00;6.82;;;;;;;19.50;72.83;97299.25;4964779;28;20137;-72
2021/11/05 08:46:21;;;;;;;11.27;7.45;;;;;;;19.58;73.58;97338.06;4962906;28;20066;-71
2021/11/05 08:49:06;;;;;;;11.43;7.75;;;;;;;19.93;73.99;97338.78;4964404;28;20073;-71
2021/11/05 08:51:33;;;;;;;14.23;8.63;;;;;;;20.20;72.46;97342.41;4963887;28;20089;-70
2021/11/05 08:54:00;;;;;;;13.75;6.55;;;;;;;18.49;76.64;97273.19;4962714;28;20063;-70
2021/11/05 08:56:27;;;;;;;11.77;7.28;;;;;;;17.52;75.55;97029.88;4963358;28;20054;-70
2021/11/05 08:58:54;;;;;;;9.48;7.75;;;;;;;18.38;77.30;97256.47;4964470;28;20057;-71
2021/11/05 09:01:21;;;;;;;12.95;7.50;;;;;;;18.78;77.11;97297.72;4963525;28;20438;-71
2021/11/05 09:03:48;;;;;;;10.52;6.63;;;;;;;18.46;78.16;97305.69;4963904;28;20597;-71
2021/11/05 09:06:15;;;;;;;15.30;8.45;;;;;;;18.10;79.47;97271.50;4963423;28;20629;-71
2021/11/05 09:08:43;;;;;;;8.98;6.88;;;;;;;18.94;78.16;97328.81;4964644;28;20066;-71
2021/11/05 09:11:11;;;;;;;11.52;6.45;;;;;;;19.03;77.06;97298.22;4961790;28;20557;-71
2021/11/05 09:13:38;;;;;;;10.35;6.35;;;;;;;18.89;77.00;97326.44;4967202;28;20526;-71
2021/11/05 09:16:06;;;;;;;9.65;5.88;;;;;;;19.04;74.24;97270.94;4967736;28;20469;-70
2021/11/05 09:18:33;;;;;;;9.00;5.93;;;;;;;19.31;72.83;97302.72;4967967;28;20054;-71
2021/11/05 09:21:01;;;;;;;13.52;6.13;;;;;;;19.84;71.39;97321.66;4966282;28;20059;-72
2021/11/05 09:23:28;;;;;;;11.63;5.82;;;;;;;19.52;72.04;97277.94;4968074;28;20494;-71
2021/11/05 09:25:55;;;;;;;13.73;6.68;;;;;;;18.81;72.90;97184.59;4967690;28;20050;-71
2021/11/05 09:28:22;;;;;;;11.38;7.35;;;;;;;19.31;73.04;97257.78;4967487;28;20090;-70
2021/11/05 09:30:49;;;;;;;10.38;6.30;;;;;;;20.03;71.99;97312.53;4966212;28;20115;-71
2021/11/05 09:33:18;;;;;;;11.23;6.43;;;;;;;20.04;70.95;97311.31;4966473;28;20594;-71
2021/11/05 09:35:45;;;;;;;11.10;6.45;;;;;;;20.06;71.38;97301.19;4967667;28;20062;-71
2021/11/05 09:38:14;;;;;;;7.15;5.47;;;;;;;20.03;70.67;97298.47;4966202;28;20050;-71
2021/11/05 09:40:41;;;;;;;11.05;6.43;;;;;;;20.08;70.03;97261.41;4967522;28;20054;-72
2021/11/05 09:43:09;;;;;;;11.63;6.75;;;;;;;19.72;69.72;97187.28;4967550;28;20093;-72
2021/11/05 09:45:35;;;;;;;10.82;6.75;;;;;;;20.12;70.83;97307.16;4967045;28;20552;-71
2021/11/05 09:48:03;;;;;;;8.45;6.25;;;;;;;19.88;71.28;97297.88;4967244;28;20054;-71
2021/11/05 09:50:30;;;;;;;7.60;5.80;;;;;;;19.92;69.54;97290.19;4967739;28;20185;-73
2021/11/05 09:52:58;;;;;;;12.38;6.05;;;;;;;19.81;69.92;97226.91;4966965;28;20430;-72
2021/11/05 09:55:25;;;;;;;11.07;6.10;;;;;;;20.41;68.10;97254.81;4966966;28;20082;-72
2021/11/05 09:57:52;;;;;;;10.18;6.60;;;;;;;19.38;68.38;97148.09;4966675;28;20059;-72
2021/11/05 10:00:23;;;;;;;11.48;6.15;;;;;;;20.62;66.65;97260.06;4965603;28;20055;-72
2021/11/05 10:02:51;;;;;;;10.88;6.32;;;;;;;21.16;65.40;97281.16;4966020;28;20058;-72
2021/11/05 10:05:19;;;;;;;8.40;6.63;;;;;;;20.65;64.22;97166.28;4966146;28;20061;-72
2021/11/05 10:07:54;;;;;;;8.65;5.97;;;;;;;21.04;65.56;97273.31;4958790;28;20506;-67
2021/11/05 10:10:35;;;;;;;9.20;6.85;;;;;;;21.14;64.85;97266.69;4961216;28;20162;-73
2021/11/05 10:13:13;;;;;;;7.85;6.25;;;;;;;21.72;63.33;97268.59;4966908;28;20055;-71
2021/11/05 10:15:45;;;;;;;6.03;5.50;;;;;;;20.74;64.06;97209.53;4981479;28;20082;-70
2021/11/05 10:18:15;;;;;;;11.98;6.75;;;;;;;21.70;63.02;97247.72;4966899;28;20161;-73
2021/11/05 10:20:44;;;;;;;11.82;6.18;;;;;;;21.34;61.55;97112.44;4967054;28;20050;-73
2021/11/05 10:23:12;;;;;;;9.73;6.80;;;;;;;22.27;60.26;97260.03;4966508;28;20599;-74
2021/11/05 10:25:49;;;;;;;10.45;6.43;;;;;;;22.45;59.76;97249.09;4965724;28;20070;-73
2021/11/05 10:28:17;;;;;;;9.15;7.20;;;;;;;22.63;58.91;97247.84;4965479;28;20058;-74
2021/11/05 10:30:44;;;;;;;8.48;5.97;;;;;;;22.17;59.08;97244.19;4966503;28;20454;-75
2021/11/05 10:33:14;;;;;;;6.93;6.15;;;;;;;22.48;59.41;97243.78;4960790;28;20521;-69
2021/11/05 10:35:44;;;;;;;10.68;6.07;;;;;;;21.93;58.71;97165.78;4963670;28;20051;-69
2021/11/05 10:38:27;;;;;;;7.88;6.25;;;;;;;22.76;57.80;97251.53;4961679;28;20051;-71
2021/11/05 10:40:57;;;;;;;12.77;6.43;;;;;;;23.09;56.16;97255.81;4960849;28;20053;-68
2021/11/05 10:43:58;;;;;;;7.78;5.70;;;;;;;22.60;56.67;97276.97;4963915;28;20054;-69
2021/11/05 10:46:32;;;;;;;9.45;6.25;;;;;;;23.00;56.61;97241.56;4948840;28;20461;-70
2021/11/05 10:49:05;;;;;;;8.70;5.63;;;;;;;23.00;54.36;97204.81;4957551;28;20058;-77
2021/11/05 10:51:33;;;;;;;8.95;6.38;;;;;;;22.13;55.94;97158.78;4957976;28;20548;-73
2021/11/05 10:54:01;;;;;;;7.85;5.72;;;;;;;22.47;56.89;97195.00;4964965;28;20050;-66
2021/11/05 10:56:30;;;;;;;8.90;5.50;;;;;;;22.67;54.86;97158.16;4948177;28;20122;-70
2021/11/05 10:59:00;;;;;;;11.13;5.57;;;;;;;22.92;56.45;97226.06;4956901;28;20166;-68
2021/11/05 11:01:34;;;;;;;7.55;5.53;;;;;;;22.87;53.49;97175.72;4956417;28;20558;-63
2021/11/05 11:04:06;;;;;;;7.90;5.57;;;;;;;23.01;55.07;97214.88;4949402;28;20082;-65
2021/11/05 11:06:43;;;;;;;13.48;6.32;;;;;;;22.86;56.04;97216.53;4953306;28;20114;-64
2021/11/05 11:09:14;;;;;;;15.75;7.07;;;;;;;23.19;55.39;97217.97;4951412;28;20438;-69
2021/11/05 11:11:42;;;;;;;10.48;6.88;;;;;;;22.69;56.60;97206.50;4950357;28;20062;-67
2021/11/05 11:14:18;;;;;;;14.07;10.48;;;;;;;21.59;56.00;96988.56;4944744;28;20426;-67
2021/11/05 11:16:58;;;;;;;9.35;6.22;;;;;;;23.00;55.96;97204.81;4945237;28;20053;-68
2021/11/05 11:19:33;;;;;;;11.52;6.15;;;;;;;22.82;56.46;97198.88;4946123;28;20053;-68
2021/11/05 11:22:09;;;;;;;8.40;6.38;;;;;;;21.30;56.23;96920.13;4960624;28;20077;-68
2021/11/05 11:24:39;;;;;;;10.57;6.47;;;;;;;23.02;56.48;97165.59;4945604;28;20051;-69